Deport, Texas
Current Conditions -  °F | °C
As of 3:35 PM on Saturday 25 Oct 2014 (Local Time) from KPRX Reporting Station
Clear Clear  
Wind Chill: 86°   Ceiling: Unl
Heat Index: 86°   Visibility: 10mi
Dew Point: 61°   Wind: 0mph
Humidity: 43%   Direction: NA
Pressure: 30.07"   Gusts: NA
Location:  33.53°N, 95.32°W
Report Text: KPRX 252035Z 00000KT 10SM CLR 30/16 A3007 RMK AO1
Loading
Personal Weather Stations






























Interactive Weather Map
Tropical Storm Tracking
New forecast layout! Learn more

10-Day Weather Forecast

Advertisements
Track Severe Weather on mobile